Time;durP1;ratioP1;P1;durP2;ratioP2;P2;SDS_P1;SDS_P2;PMS_P1;PMS_P2;Temp;Humidity;BMP_temperature;BMP_pressure;BME280_temperature;BME280_humidity;BME280_pressure;Samples;Min_cycle;Max_cycle;Signal;HPM_P1;HPM_P2
2021/09/04 00:01:59;;;;;;;38.20;22.10;;;16.90;59.40;;;;;;5054131;28;20392;-77
2021/09/04 00:04:24;;;;;;;42.33;23.97;;;16.90;60.50;;;;;;5054273;28;20385;-77
2021/09/04 00:06:50;;;;;;;43.93;23.60;;;16.90;60.20;;;;;;5054784;28;20959;-77
2021/09/04 00:09:16;;;;;;;41.13;23.90;;;16.90;59.70;;;;;;5054882;28;20387;-77
2021/09/04 00:11:41;;;;;;;43.88;22.40;;;16.80;62.10;;;;;;5054601;28;20454;-77
2021/09/04 00:14:07;;;;;;;43.88;23.27;;;16.70;63.70;;;;;;5055620;28;20456;-77
2021/09/04 00:16:32;;;;;;;40.43;23.10;;;16.80;62.50;;;;;;5056710;28;20399;-77
2021/09/04 00:18:58;;;;;;;45.20;22.23;;;16.90;60.80;;;;;;5056176;28;20377;-77
2021/09/04 00:21:23;;;;;;;39.75;23.42;;;17.00;59.90;;;;;;5056648;28;20397;-77
2021/09/04 00:23:49;;;;;;;46.15;23.20;;;16.90;59.60;;;;;;5060956;28;20402;-77
2021/09/04 00:26:14;;;;;;;39.80;22.53;;;16.90;60.50;;;;;;5056331;28;20516;-76
2021/09/04 00:28:42;;;;;;;49.17;24.07;;;16.90;60.40;;;;;;5041010;28;20383;-76
2021/09/04 00:31:08;;;;;;;42.63;23.83;;;16.80;60.50;;;;;;5036681;28;20457;-77
2021/09/04 00:33:33;;;;;;;43.67;23.80;;;16.70;62.20;;;;;;5044012;28;20381;-76
2021/09/04 00:35:59;;;;;;;41.50;22.80;;;16.70;62.40;;;;;;5056349;28;20743;-77
2021/09/04 00:38:25;;;;;;;40.53;23.47;;;16.80;62.30;;;;;;5053625;28;20381;-73
2021/09/04 00:40:50;;;;;;;43.33;23.50;;;16.70;63.10;;;;;;5053910;28;20401;-73
2021/09/04 00:43:16;;;;;;;44.97;24.60;;;16.70;63.00;;;;;;5055625;28;21143;-73
2021/09/04 00:45:41;;;;;;;42.70;23.50;;;16.60;64.40;;;;;;5054447;28;20778;-75
2021/09/04 00:48:07;;;;;;;44.38;24.50;;;16.50;66.20;;;;;;5055674;28;20389;-74
2021/09/04 00:50:34;;;;;;;44.85;25.65;;;16.50;67.20;;;;;;5056702;28;20444;-76
2021/09/04 00:53:01;;;;;;;46.95;24.85;;;16.50;65.90;;;;;;5054587;28;20909;-75
2021/09/04 00:55:27;;;;;;;45.58;25.02;;;16.40;67.00;;;;;;5052867;28;20400;-76
2021/09/04 00:57:53;;;;;;;43.90;24.98;;;16.40;66.70;;;;;;5054989;28;20393;-74
2021/09/04 01:00:19;;;;;;;50.47;27.07;;;16.40;65.80;;;;;;5056686;28;21086;-74
2021/09/04 01:02:45;;;;;;;43.53;24.50;;;16.40;66.50;;;;;;5057331;28;20821;-73
2021/09/04 01:05:11;;;;;;;45.90;26.38;;;16.40;66.80;;;;;;5055744;28;20383;-74
2021/09/04 01:07:38;;;;;;;48.08;25.90;;;16.20;69.40;;;;;;5057322;28;20404;-74
2021/09/04 01:10:05;;;;;;;46.53;26.40;;;16.20;69.60;;;;;;5056433;28;20381;-76
2021/09/04 01:12:31;;;;;;;48.08;25.25;;;16.20;70.70;;;;;;5054519;28;20420;-76
2021/09/04 01:14:58;;;;;;;45.95;25.73;;;16.20;70.30;;;;;;5054560;28;20405;-75
2021/09/04 01:17:24;;;;;;;44.78;25.40;;;16.00;71.10;;;;;;5053066;28;20432;-76
2021/09/04 01:19:50;;;;;;;49.10;26.70;;;16.00;70.70;;;;;;5052660;28;20412;-76
2021/09/04 01:22:16;;;;;;;46.77;27.23;;;15.80;74.10;;;;;;5052299;28;20397;-76
2021/09/04 01:24:46;;;;;;;45.87;25.93;;;15.60;77.70;;;;;;5052984;28;20387;-75
2021/09/04 01:27:12;;;;;;;44.65;25.50;;;15.60;78.80;;;;;;5052899;28;20858;-76
2021/09/04 01:29:37;;;;;;;44.30;26.23;;;15.50;78.80;;;;;;5052596;28;20425;-75
2021/09/04 01:32:03;;;;;;;43.55;25.50;;;15.60;79.10;;;;;;5052215;28;20434;-73
2021/09/04 01:34:29;;;;;;;47.22;26.80;;;15.60;79.60;;;;;;5051978;28;20420;-75
2021/09/04 01:36:55;;;;;;;43.43;25.80;;;15.70;78.70;;;;;;5052515;28;20406;-75
2021/09/04 01:39:21;;;;;;;52.83;26.87;;;15.70;78.10;;;;;;5051207;28;20487;-74
2021/09/04 01:41:49;;;;;;;46.43;25.97;;;15.80;76.30;;;;;;5048637;28;20425;-74
2021/09/04 01:44:15;;;;;;;39.65;25.52;;;15.80;76.10;;;;;;5053233;28;20396;-74
2021/09/04 01:46:40;;;;;;;43.60;24.80;;;15.80;75.50;;;;;;5053111;28;20429;-74
2021/09/04 01:49:06;;;;;;;45.50;24.80;;;15.90;74.80;;;;;;5053422;28;20397;-74
2021/09/04 01:51:32;;;;;;;48.03;26.53;;;15.80;75.40;;;;;;5054274;28;20812;-75
2021/09/04 01:53:58;;;;;;;49.97;26.58;;;15.80;77.00;;;;;;5053946;28;20381;-75
2021/09/04 01:56:24;;;;;;;48.80;26.55;;;15.80;76.60;;;;;;5054160;28;20382;-75
2021/09/04 01:58:49;;;;;;;51.17;27.10;;;15.80;76.80;;;;;;5054574;28;20389;-76
2021/09/04 02:01:15;;;;;;;49.20;27.50;;;15.80;77.50;;;;;;5053607;28;20428;-74
2021/09/04 02:03:40;;;;;;;46.93;26.40;;;15.70;78.10;;;;;;5053393;28;20447;-76
2021/09/04 02:06:06;;;;;;;60.47;28.60;;;15.70;78.40;;;;;;5053350;28;20409;-74
2021/09/04 02:08:32;;;;;;;46.97;27.77;;;15.70;78.60;;;;;;5051807;28;20817;-75
2021/09/04 02:10:58;;;;;;;49.57;26.77;;;15.70;78.90;;;;;;5050538;28;20439;-76
2021/09/04 02:13:24;;;;;;;53.22;27.52;;;15.60;80.60;;;;;;5051428;28;20384;-77
2021/09/04 02:15:50;;;;;;;50.00;27.90;;;15.40;83.00;;;;;;5058918;28;20388;-77
2021/09/04 02:18:16;;;;;;;55.75;30.85;;;15.50;82.30;;;;;;5057981;28;20429;-77
2021/09/04 02:20:41;;;;;;;59.88;28.83;;;15.60;81.50;;;;;;5063399;28;20381;-77
2021/09/04 02:23:07;;;;;;;50.22;28.55;;;15.60;80.80;;;;;;5084399;28;20411;-77
2021/09/04 02:25:32;;;;;;;52.63;28.40;;;15.60;81.50;;;;;;5042756;28;20398;-77
2021/09/04 02:27:58;;;;;;;54.80;28.50;;;15.60;82.00;;;;;;5038939;28;20394;-77
2021/09/04 02:30:24;;;;;;;57.38;28.30;;;15.50;83.10;;;;;;5049808;28;20396;-77
2021/09/04 02:32:49;;;;;;;61.60;29.47;;;15.50;84.00;;;;;;5058411;28;20447;-77
2021/09/04 02:35:15;;;;;;;67.27;30.57;;;15.50;84.60;;;;;;5057206;28;20973;-76
2021/09/04 02:37:41;;;;;;;57.83;30.20;;;15.40;84.80;;;;;;5052532;28;20425;-77
2021/09/04 02:40:07;;;;;;;67.32;32.40;;;15.40;85.20;;;;;;5052356;28;20386;-76
2021/09/04 02:42:33;;;;;;;59.42;31.20;;;15.40;85.90;;;;;;5052707;28;20389;-77
2021/09/04 02:44:59;;;;;;;56.00;31.17;;;15.30;86.10;;;;;;5051946;28;20404;-77
2021/09/04 02:47:24;;;;;;;63.65;32.70;;;15.30;86.60;;;;;;5053047;28;20435;-77
2021/09/04 02:49:50;;;;;;;72.10;32.67;;;15.30;86.70;;;;;;5052800;28;20881;-77
2021/09/04 02:52:15;;;;;;;60.17;30.40;;;15.30;87.20;;;;;;5051520;28;20893;-77
2021/09/04 02:54:41;;;;;;;68.07;32.70;;;15.30;87.50;;;;;;5052613;28;20550;-76
2021/09/04 02:57:07;;;;;;;64.50;32.63;;;15.30;87.20;;;;;;5050624;28;20405;-76
2021/09/04 02:59:33;;;;;;;63.07;31.17;;;15.30;87.50;;;;;;5050712;28;20397;-76
2021/09/04 03:01:59;;;;;;;68.27;33.73;;;15.20;87.90;;;;;;5051604;28;20389;-76
2021/09/04 03:04:24;;;;;;;65.73;35.27;;;15.10;90.60;;;;;;5051419;28;20389;-77
2021/09/04 03:06:50;;;;;;;71.00;33.30;;;15.10;89.80;;;;;;5051226;28;20401;-75
2021/09/04 03:09:15;;;;;;;59.80;34.87;;;15.10;90.20;;;;;;5051186;28;20432;-76
2021/09/04 03:11:41;;;;;;;72.13;34.70;;;15.10;90.40;;;;;;5051650;28;20413;-76
2021/09/04 03:14:06;;;;;;;64.22;33.83;;;15.10;90.40;;;;;;5053174;28;20394;-76
2021/09/04 03:16:32;;;;;;;65.75;34.40;;;15.10;90.40;;;;;;5051948;28;20417;-77
2021/09/04 03:18:57;;;;;;;72.67;35.00;;;15.10;89.60;;;;;;5052338;28;20537;-76
2021/09/04 03:21:23;;;;;;;72.33;36.37;;;15.00;90.80;;;;;;5052895;28;20769;-76
2021/09/04 03:23:49;;;;;;;70.47;35.80;;;15.00;90.10;;;;;;5052372;28;20750;-77
2021/09/04 03:26:14;;;;;;;76.43;36.63;;;14.80;90.90;;;;;;5061237;28;20396;-75
2021/09/04 03:28:40;;;;;;;69.63;35.30;;;14.80;93.60;;;;;;5058098;28;20776;-76
2021/09/04 03:31:05;;;;;;;76.40;36.83;;;14.90;93.50;;;;;;5075683;28;20900;-77
2021/09/04 03:33:31;;;;;;;77.17;36.77;;;14.90;92.90;;;;;;5067443;28;20377;-77
2021/09/04 03:35:56;;;;;;;71.67;36.20;;;14.80;94.40;;;;;;5052250;28;20381;-76
2021/09/04 03:38:22;;;;;;;75.73;36.67;;;14.80;94.00;;;;;;5051524;28;20782;-77
2021/09/04 03:40:48;;;;;;;73.82;37.22;;;14.80;93.80;;;;;;5051991;28;20401;-77
2021/09/04 03:43:13;;;;;;;76.63;38.17;;;14.80;93.40;;;;;;5052042;28;20393;-77
2021/09/04 03:45:39;;;;;;;77.55;36.50;;;14.90;91.40;;;;;;5051177;28;20385;-77
2021/09/04 03:48:05;;;;;;;76.88;37.50;;;14.90;90.40;;;;;;5049839;28;20412;-76
2021/09/04 03:50:30;;;;;;;73.35;35.72;;;14.90;90.50;;;;;;5054426;28;20396;-77
2021/09/04 03:52:56;;;;;;;80.90;38.80;;;14.90;90.40;;;;;;5052968;28;20766;-77
2021/09/04 03:55:21;;;;;;;77.97;39.47;;;14.80;91.80;;;;;;5050678;28;20413;-77
2021/09/04 03:57:47;;;;;;;82.40;38.60;;;14.80;92.80;;;;;;5051838;28;20396;-80
2021/09/04 04:00:13;;;;;;;80.90;38.40;;;14.70;93.00;;;;;;5053159;28;20418;-78
2021/09/04 04:02:40;;;;;;;79.85;39.60;;;14.60;95.30;;;;;;5053340;28;20381;-79
2021/09/04 04:05:06;;;;;;;80.68;39.67;;;14.60;95.40;;;;;;5051342;28;20405;-77
2021/09/04 04:07:31;;;;;;;73.05;39.15;;;14.60;95.90;;;;;;5053561;28;20431;-78
2021/09/04 04:09:57;;;;;;;78.27;38.93;;;14.60;95.30;;;;;;5053341;28;20817;-79
2021/09/04 04:12:23;;;;;;;87.83;41.30;;;14.60;94.10;;;;;;5055287;28;20952;-77
2021/09/04 04:14:48;;;;;;;82.80;42.57;;;14.50;95.20;;;;;;5060546;28;20385;-78
2021/09/04 04:17:14;;;;;;;87.80;41.97;;;14.60;95.60;;;;;;5060850;28;20427;-77
2021/09/04 04:19:39;;;;;;;85.87;41.40;;;14.70;93.20;;;;;;5062463;28;20450;-77
2021/09/04 04:22:05;;;;;;;95.25;42.88;;;14.70;91.60;;;;;;5067263;28;20385;-77
2021/09/04 04:24:30;;;;;;;95.10;42.20;;;14.70;91.80;;;;;;5065445;28;20431;-78
2021/09/04 04:26:56;;;;;;;90.87;43.43;;;14.60;92.00;;;;;;5064052;28;20409;-76
2021/09/04 04:29:21;;;;;;;95.27;43.73;;;14.60;93.00;;;;;;5059819;28;20748;-77
2021/09/04 04:31:47;;;;;;;96.67;44.57;;;14.60;93.30;;;;;;5056054;28;20890;-77
2021/09/04 04:34:13;;;;;;;103.65;46.63;;;14.60;93.70;;;;;;5041048;28;20390;-77
2021/09/04 04:36:38;;;;;;;98.53;44.75;;;14.60;94.70;;;;;;5033843;28;20437;-77
2021/09/04 04:39:04;;;;;;;99.80;47.00;;;14.50;95.70;;;;;;5046731;28;20393;-78
2021/09/04 04:41:30;;;;;;;95.47;46.25;;;14.50;95.30;;;;;;5058421;28;20401;-79
2021/09/04 04:43:55;;;;;;;106.38;46.47;;;14.50;96.10;;;;;;5058782;28;20450;-78
2021/09/04 04:46:21;;;;;;;108.10;47.95;;;14.50;96.00;;;;;;5058919;28;20424;-79
2021/09/04 04:48:46;;;;;;;99.00;47.40;;;14.50;96.00;;;;;;5057292;28;20400;-77
2021/09/04 04:51:12;;;;;;;111.60;50.30;;;14.40;96.10;;;;;;5056757;28;20408;-77
2021/09/04 04:53:39;;;;;;;114.00;50.30;;;14.40;98.00;;;;;;5057583;28;20389;-77
2021/09/04 04:56:05;;;;;;;104.18;47.65;;;14.40;97.60;;;;;;5058912;28;20390;-77
2021/09/04 04:58:30;;;;;;;108.20;49.83;;;14.40;98.60;;;;;;5056450;28;20449;-78
2021/09/04 05:00:56;;;;;;;103.27;48.20;;;14.40;99.70;;;;;;5056209;28;20394;-78
2021/09/04 05:03:21;;;;;;;104.67;50.23;;;14.60;98.40;;;;;;5057352;28;20751;-77
2021/09/04 05:05:47;;;;;;;117.20;50.53;;;14.60;97.20;;;;;;5056332;28;20412;-77
2021/09/04 05:08:13;;;;;;;108.07;49.20;;;14.70;96.70;;;;;;5056465;28;20413;-78
2021/09/04 05:10:38;;;;;;;120.10;54.23;;;14.70;96.50;;;;;;5056894;28;20377;-78
2021/09/04 05:13:04;;;;;;;129.00;56.67;;;14.80;96.10;;;;;;5057106;28;20417;-79
2021/09/04 05:15:30;;;;;;;116.70;55.45;;;14.90;93.00;;;;;;5056672;28;20408;-78
2021/09/04 05:17:56;;;;;;;115.17;53.50;;;15.00;91.00;;;;;;5058034;28;20382;-76
2021/09/04 05:20:21;;;;;;;101.03;49.67;;;15.00;90.50;;;;;;5069187;28;20385;-77
2021/09/04 05:22:47;;;;;;;109.23;51.53;;;15.00;90.50;;;;;;5062758;28;20385;-78
2021/09/04 05:25:14;;;;;;;103.87;48.80;;;15.10;88.80;;;;;;5056275;28;20412;-78
2021/09/04 05:27:40;;;;;;;114.35;52.13;;;15.20;88.50;;;;;;5057929;28;20373;-77
2021/09/04 05:30:06;;;;;;;98.25;47.95;;;15.20;88.60;;;;;;5062325;28;20408;-77
2021/09/04 05:32:31;;;;;;;99.32;49.28;;;15.30;85.60;;;;;;5064790;28;20404;-76
2021/09/04 05:34:59;;;;;;;103.22;49.85;;;15.30;84.00;;;;;;5060855;28;20400;-77
2021/09/04 05:37:26;;;;;;;103.13;50.70;;;15.40;84.80;;;;;;5065919;28;20373;-76
2021/09/04 05:39:51;;;;;;;108.20;51.50;;;15.40;84.30;;;;;;5069038;28;20762;-77
2021/09/04 05:42:17;;;;;;;98.77;49.50;;;15.50;84.00;;;;;;5065309;28;20401;-78
2021/09/04 05:44:43;;;;;;;105.50;49.77;;;15.60;82.90;;;;;;5066953;28;20385;-77
2021/09/04 05:47:08;;;;;;;108.07;50.07;;;15.70;81.20;;;;;;5066147;28;20400;-77
2021/09/04 05:49:34;;;;;;;88.80;45.47;;;15.70;80.00;;;;;;5062608;28;20393;-77
2021/09/04 05:52:00;;;;;;;95.10;46.87;;;15.80;77.40;;;;;;5061292;28;20432;-77
2021/09/04 05:54:25;;;;;;;91.87;45.90;;;15.90;75.30;;;;;;5062649;28;20396;-78
2021/09/04 05:56:51;;;;;;;91.32;46.78;;;15.90;75.40;;;;;;5063152;28;20393;-77
2021/09/04 05:59:16;;;;;;;97.70;46.33;;;15.90;74.80;;;;;;5060928;28;20395;-77
2021/09/04 06:01:42;;;;;;;98.83;48.50;;;15.90;75.00;;;;;;5054920;28;20400;-77
2021/09/04 06:04:07;;;;;;;100.43;47.17;;;15.90;75.80;;;;;;5060824;28;20428;-77
2021/09/04 06:06:33;;;;;;;92.72;45.08;;;16.00;74.60;;;;;;5062152;28;20485;-76
2021/09/04 06:09:02;;;;;;;92.95;44.75;;;16.00;72.20;;;;;;5059900;28;20401;-77
2021/09/04 06:11:27;;;;;;;94.43;45.58;;;16.00;74.20;;;;;;5053664;28;20417;-71
2021/09/04 06:13:53;;;;;;;87.55;43.33;;;16.10;73.30;;;;;;5052575;28;20377;-71
2021/09/04 06:16:18;;;;;;;85.93;41.83;;;16.10;71.70;;;;;;5053414;28;20485;-78
2021/09/04 06:18:44;;;;;;;80.10;41.40;;;16.10;70.30;;;;;;5057887;28;20746;-78
2021/09/04 06:21:09;;;;;;;82.72;41.47;;;16.10;70.50;;;;;;5056454;28;20477;-77
2021/09/04 06:23:35;;;;;;;85.03;42.53;;;16.20;69.40;;;;;;5055396;28;20405;-78
2021/09/04 06:26:01;;;;;;;85.47;42.83;;;16.20;68.40;;;;;;5064713;28;20404;-78
2021/09/04 06:28:26;;;;;;;82.57;41.10;;;16.30;68.50;;;;;;5055467;28;20393;-77
2021/09/04 06:30:52;;;;;;;83.20;40.90;;;16.40;66.30;;;;;;5052622;28;20944;-76
2021/09/04 06:33:17;;;;;;;84.25;42.85;;;16.40;64.80;;;;;;5050402;28;20401;-77
2021/09/04 06:35:43;;;;;;;79.30;40.75;;;16.40;64.10;;;;;;5051114;28;20441;-76
2021/09/04 06:38:08;;;;;;;84.73;41.30;;;16.40;65.10;;;;;;5042438;28;20407;-77
2021/09/04 06:40:34;;;;;;;85.27;42.03;;;16.50;64.60;;;;;;5049044;28;20402;-74
2021/09/04 06:42:59;;;;;;;83.05;41.10;;;16.50;62.80;;;;;;5051738;28;20417;-75
2021/09/04 06:45:25;;;;;;;84.78;41.92;;;16.60;61.10;;;;;;5049684;28;20493;-76
2021/09/04 06:47:50;;;;;;;81.07;41.00;;;16.60;62.60;;;;;;5051552;28;20389;-75
2021/09/04 06:50:16;;;;;;;78.27;39.70;;;16.60;61.70;;;;;;5036354;28;20435;-76
2021/09/04 06:52:42;;;;;;;82.57;40.50;;;16.70;59.70;;;;;;5050482;28;20405;-76
2021/09/04 06:55:08;;;;;;;68.90;38.35;;;16.70;60.50;;;;;;5049983;28;20432;-76
2021/09/04 06:57:34;;;;;;;72.68;38.53;;;16.60;60.00;;;;;;5051068;28;20905;-76
2021/09/04 06:59:59;;;;;;;77.88;39.22;;;16.70;60.00;;;;;;5048392;28;20409;-75
2021/09/04 07:02:25;;;;;;;76.03;38.93;;;16.80;58.40;;;;;;5051182;28;20879;-75
2021/09/04 07:04:51;;;;;;;69.70;36.60;;;16.70;58.80;;;;;;5051811;28;21000;-74
2021/09/04 07:07:16;;;;;;;72.93;35.25;;;16.80;59.00;;;;;;5052396;28;20401;-76
2021/09/04 07:09:42;;;;;;;70.55;35.97;;;16.80;58.50;;;;;;5049132;28;20856;-73
2021/09/04 07:12:07;;;;;;;69.95;34.58;;;16.80;58.40;;;;;;5048690;28;20412;-74
2021/09/04 07:14:33;;;;;;;71.10;35.70;;;16.60;59.40;;;;;;5050988;28;20404;-76
2021/09/04 07:16:58;;;;;;;66.70;34.17;;;16.70;58.70;;;;;;5051778;28;20762;-74
2021/09/04 07:19:24;;;;;;;65.90;35.77;;;16.80;58.90;;;;;;5051419;28;20926;-74
2021/09/04 07:21:49;;;;;;;71.80;35.20;;;16.90;56.60;;;;;;5049806;28;20393;-76
2021/09/04 07:24:15;;;;;;;58.63;33.45;;;17.00;55.30;;;;;;5050559;28;20500;-74
2021/09/04 07:26:41;;;;;;;63.30;33.30;;;17.20;53.60;;;;;;5050923;28;20423;-75
2021/09/04 07:29:06;;;;;;;60.37;32.77;;;17.30;53.40;;;;;;5053362;28;20774;-76
2021/09/04 07:31:32;;;;;;;62.17;32.33;;;17.40;52.00;;;;;;5053861;28;20444;-76
2021/09/04 07:33:57;;;;;;;63.20;32.50;;;17.50;50.80;;;;;;5052246;28;20451;-76
2021/09/04 07:36:23;;;;;;;60.93;32.20;;;17.60;49.50;;;;;;5050901;28;20390;-76
2021/09/04 07:38:48;;;;;;;58.97;30.40;;;17.70;49.50;;;;;;5054718;28;20397;-76
2021/09/04 07:41:14;;;;;;;54.30;30.98;;;17.70;48.10;;;;;;5053293;28;20459;-75
2021/09/04 07:43:39;;;;;;;55.97;29.58;;;17.60;47.90;;;;;;5053938;28;20461;-76
2021/09/04 07:46:05;;;;;;;58.17;30.17;;;17.50;48.70;;;;;;5054662;28;20719;-75
2021/09/04 07:48:31;;;;;;;58.17;29.80;;;17.60;48.90;;;;;;5049896;28;20397;-74
2021/09/04 07:50:56;;;;;;;56.83;30.38;;;17.60;48.90;;;;;;5051109;28;20403;-75
2021/09/04 07:53:22;;;;;;;56.75;29.17;;;17.70;47.60;;;;;;5051603;28;20393;-76
2021/09/04 07:55:48;;;;;;;54.67;29.33;;;17.80;47.90;;;;;;5042552;28;20367;-76
2021/09/04 07:58:13;;;;;;;57.40;30.35;;;17.70;47.20;;;;;;5049776;28;20476;-75
2021/09/04 08:00:39;;;;;;;49.85;28.13;;;17.70;48.40;;;;;;5049755;28;20401;-75
2021/09/04 08:03:05;;;;;;;52.45;28.52;;;17.90;46.60;;;;;;5050325;28;20397;-76
2021/09/04 08:05:30;;;;;;;50.00;27.80;;;17.90;45.70;;;;;;5050372;28;20428;-74
2021/09/04 08:07:56;;;;;;;55.13;29.13;;;17.80;46.50;;;;;;5049927;28;20897;-73
2021/09/04 08:10:21;;;;;;;54.05;28.35;;;17.70;47.70;;;;;;5051285;28;20389;-76
2021/09/04 08:12:47;;;;;;;56.83;30.15;;;17.70;47.60;;;;;;5052165;28;20847;-75
2021/09/04 08:15:13;;;;;;;54.05;28.90;;;17.80;47.10;;;;;;5052359;28;20425;-75
2021/09/04 08:17:38;;;;;;;52.88;28.45;;;17.80;46.60;;;;;;5054447;28;20389;-75
2021/09/04 08:20:05;;;;;;;48.87;27.23;;;17.80;46.00;;;;;;5054501;28;20397;-75
2021/09/04 08:22:31;;;;;;;49.67;27.75;;;18.00;45.50;;;;;;5053893;28;20400;-74
2021/09/04 08:24:56;;;;;;;56.55;28.10;;;18.20;44.00;;;;;;5053689;28;20775;-76
2021/09/04 08:27:22;;;;;;;57.00;28.85;;;18.30;44.30;;;;;;5048678;28;20472;-75
2021/09/04 08:29:47;;;;;;;50.77;27.50;;;18.30;44.10;;;;;;5049408;28;20493;-74
2021/09/04 08:32:13;;;;;;;48.67;27.60;;;18.30;43.40;;;;;;5044872;28;20413;-75
2021/09/04 08:34:39;;;;;;;49.57;27.93;;;18.40;41.90;;;;;;5037182;28;20398;-75
2021/09/04 08:37:04;;;;;;;51.20;27.13;;;18.40;43.10;;;;;;5038651;28;20389;-73
2021/09/04 08:39:30;;;;;;;49.20;27.27;;;18.60;42.80;;;;;;5051787;28;20388;-74
2021/09/04 08:41:56;;;;;;;48.88;26.98;;;18.70;40.60;;;;;;5037616;28;20401;-74
2021/09/04 08:44:22;;;;;;;46.67;25.92;;;18.70;40.30;;;;;;5053138;28;20393;-76
2021/09/04 08:46:50;;;;;;;51.10;27.52;;;18.70;40.40;;;;;;5053259;28;20462;-73
2021/09/04 08:49:15;;;;;;;49.78;28.00;;;18.50;40.60;;;;;;5044832;28;20397;-74
2021/09/04 08:51:41;;;;;;;50.47;27.60;;;18.50;41.90;;;;;;5052360;28;20430;-75
2021/09/04 08:54:07;;;;;;;49.92;28.42;;;18.70;40.70;;;;;;5053249;28;20400;-76
2021/09/04 08:56:33;;;;;;;50.80;28.00;;;18.70;41.40;;;;;;5048599;28;20472;-75
2021/09/04 08:58:59;;;;;;;50.08;27.73;;;18.90;40.40;;;;;;5053505;28;20392;-76
2021/09/04 09:01:27;;;;;;;47.22;26.58;;;18.80;39.60;;;;;;5053205;28;20405;-76
2021/09/04 09:03:55;;;;;;;48.50;27.50;;;18.80;40.40;;;;;;5052575;28;20401;-76
2021/09/04 09:06:26;;;;;;;48.47;25.80;;;19.00;39.00;;;;;;5052032;28;20451;-74
2021/09/04 09:08:51;;;;;;;49.50;27.38;;;18.60;39.90;;;;;;5052075;28;20393;-76
2021/09/04 09:11:17;;;;;;;44.60;25.97;;;18.50;41.30;;;;;;5051908;28;20447;-75
2021/09/04 09:13:56;;;;;;;47.57;26.00;;;18.60;41.00;;;;;;5053429;28;20396;-73
2021/09/04 09:16:24;;;;;;;44.83;25.65;;;18.50;41.50;;;;;;5053023;28;20459;-75
2021/09/04 09:18:58;;;;;;;46.50;26.35;;;18.60;41.30;;;;;;5053323;28;20917;-73
2021/09/04 09:21:31;;;;;;;44.33;25.25;;;18.70;41.40;;;;;;5052686;28;20896;-74
2021/09/04 09:24:06;;;;;;;46.22;25.60;;;18.70;40.60;;;;;;5085955;28;20401;-75
2021/09/04 09:26:31;;;;;;;44.22;24.17;;;18.50;41.70;;;;;;5051995;28;20885;-75
2021/09/04 09:29:23;;;;;;;47.72;25.80;;;18.00;43.10;;;;;;5053928;28;20401;-76
2021/09/04 09:31:59;;;;;;;46.97;26.88;;;17.60;46.80;;;;;;5054253;28;20436;-76
2021/09/04 09:34:24;;;;;;;49.53;28.08;;;17.50;47.90;;;;;;5039626;28;20379;-75
2021/09/04 09:36:54;;;;;;;49.90;28.60;;;17.60;48.30;;;;;;5038738;28;20397;-76
2021/09/04 09:39:25;;;;;;;52.22;29.00;;;17.80;47.10;;;;;;5052616;28;20401;-76
2021/09/04 09:41:52;;;;;;;54.53;27.90;;;17.90;46.30;;;;;;5053026;28;20397;-75
2021/09/04 09:44:23;;;;;;;49.33;27.45;;;17.90;45.60;;;;;;5070078;28;20396;-74
2021/09/04 09:47:12;;;;;;;49.53;28.70;;;17.80;45.80;;;;;;5065723;28;20781;-74
2021/09/04 09:49:45;;;;;;;53.47;28.77;;;17.80;46.70;;;;;;5051937;28;20448;-76
2021/09/04 09:52:15;;;;;;;57.85;30.27;;;17.80;47.60;;;;;;5051750;28;20413;-75
2021/09/04 09:54:42;;;;;;;49.05;28.45;;;17.90;46.90;;;;;;5053010;28;20389;-76
2021/09/04 09:57:10;;;;;;;47.90;27.45;;;18.00;46.00;;;;;;5050709;28;20420;-77
2021/09/04 09:59:37;;;;;;;49.15;27.08;;;18.00;46.20;;;;;;5052341;28;20385;-75
2021/09/04 10:02:11;;;;;;;48.50;27.67;;;18.00;45.90;;;;;;5045117;28;20432;-74
2021/09/04 10:04:39;;;;;;;44.38;27.65;;;18.10;45.80;;;;;;5052208;28;20918;-75
2021/09/04 10:07:07;;;;;;;46.50;26.07;;;18.30;45.10;;;;;;5045823;28;20406;-74
2021/09/04 10:09:35;;;;;;;45.45;24.77;;;18.50;44.50;;;;;;5055069;28;20393;-73
2021/09/04 10:12:02;;;;;;;44.85;25.17;;;18.40;44.60;;;;;;5050822;28;20408;-75
2021/09/04 10:14:28;;;;;;;44.60;25.70;;;18.10;44.90;;;;;;5052553;28;20390;-74
2021/09/04 10:16:59;;;;;;;45.15;24.90;;;18.20;46.50;;;;;;5043378;28;20406;-73
2021/09/04 10:19:30;;;;;;;38.40;24.23;;;18.20;45.30;;;;;;5049293;28;20420;-77
2021/09/04 10:22:00;;;;;;;41.42;25.33;;;18.40;45.30;;;;;;5050366;28;20742;-74
2021/09/04 10:24:49;;;;;;;39.87;24.60;;;18.60;44.20;;;;;;5052034;28;20436;-74
2021/09/04 10:27:36;;;;;;;43.50;24.83;;;18.70;43.80;;;;;;5051544;28;20386;-76
2021/09/04 10:30:28;;;;;;;41.20;26.08;;;19.00;42.90;;;;;;5051851;28;20897;-73
2021/09/04 10:33:16;;;;;;;41.10;24.85;;;19.10;41.80;;;;;;5053342;28;20413;-74
2021/09/04 10:35:52;;;;;;;48.10;26.52;;;19.20;40.80;;;;;;5061721;28;20780;-75
2021/09/04 10:38:20;;;;;;;49.95;27.52;;;19.30;40.90;;;;;;5061413;28;20389;-73
2021/09/04 10:40:48;;;;;;;47.97;27.15;;;19.40;41.30;;;;;;5055666;28;20400;-74
2021/09/04 10:43:15;;;;;;;48.20;27.65;;;19.50;39.80;;;;;;5055698;28;20381;-75
2021/09/04 10:45:43;;;;;;;48.08;28.17;;;19.30;40.10;;;;;;5058200;28;20401;-74
2021/09/04 10:48:17;;;;;;;50.50;27.35;;;19.20;40.60;;;;;;5054837;28;20470;-75
2021/09/04 10:51:08;;;;;;;45.45;26.48;;;18.90;42.20;;;;;;5062697;28;20394;-75
2021/09/04 10:53:46;;;;;;;49.50;27.98;;;19.10;42.50;;;;;;5063326;28;20389;-74
2021/09/04 10:56:21;;;;;;;44.25;25.80;;;19.20;40.80;;;;;;5061576;28;20373;-75
2021/09/04 10:58:48;;;;;;;43.35;25.63;;;19.00;41.50;;;;;;5053019;28;20393;-74
2021/09/04 11:01:52;;;;;;;40.47;25.10;;;19.10;42.10;;;;;;5053865;28;20390;-74
2021/09/04 11:04:18;;;;;;;41.38;24.92;;;19.10;40.40;;;;;;5049275;28;20763;-75
2021/09/04 11:06:49;;;;;;;42.85;23.00;;;19.10;42.60;;;;;;5046641;28;20409;-72
2021/09/04 11:09:15;;;;;;;43.58;25.55;;;19.00;41.80;;;;;;5050389;28;20397;-73
2021/09/04 11:11:42;;;;;;;42.10;24.13;;;19.00;42.20;;;;;;5050494;28;20397;-73
2021/09/04 11:14:22;;;;;;;38.97;23.42;;;19.20;40.80;;;;;;5050635;28;20396;-74
2021/09/04 11:16:53;;;;;;;41.43;24.63;;;18.90;41.70;;;;;;5046871;28;20390;-73
2021/09/04 11:19:26;;;;;;;42.63;24.67;;;19.00;43.00;;;;;;5048399;28;20473;-74
2021/09/04 11:22:01;;;;;;;43.43;24.70;;;19.20;41.40;;;;;;5034392;28;20486;-75
2021/09/04 11:24:29;;;;;;;41.80;24.15;;;19.30;40.70;;;;;;5050438;28;20397;-74
2021/09/04 11:27:07;;;;;;;37.83;23.10;;;19.40;39.60;;;;;;5050528;28;20423;-73
2021/09/04 11:29:48;;;;;;;38.80;22.63;;;19.30;40.20;;;;;;5031067;28;20403;-72
2021/09/04 11:32:33;;;;;;;41.90;24.17;;;19.50;41.20;;;;;;5050457;28;20442;-73
2021/09/04 11:35:00;;;;;;;39.53;24.17;;;19.50;39.30;;;;;;5046583;28;20837;-74
2021/09/04 11:37:29;;;;;;;43.85;25.92;;;19.50;39.50;;;;;;5047880;28;20841;-72
2021/09/04 11:39:57;;;;;;;41.53;25.60;;;19.60;39.70;;;;;;5050198;28;20385;-73
2021/09/04 11:42:25;;;;;;;42.25;26.00;;;19.60;39.30;;;;;;5048758;28;20401;-74
2021/09/04 11:44:57;;;;;;;40.10;25.50;;;19.80;38.60;;;;;;5050163;28;20424;-76
2021/09/04 11:47:24;;;;;;;44.88;26.17;;;20.00;38.60;;;;;;5046280;28;20391;-74
2021/09/04 11:49:52;;;;;;;39.45;24.95;;;20.10;37.50;;;;;;5043451;28;20476;-73
2021/09/04 11:52:28;;;;;;;40.83;25.42;;;20.20;37.80;;;;;;5049665;28;20451;-72
2021/09/04 11:55:17;;;;;;;36.15;23.17;;;20.20;36.70;;;;;;5046003;28;20444;-73
2021/09/04 11:57:48;;;;;;;36.58;22.52;;;20.30;36.80;;;;;;5049372;28;20386;-74
2021/09/04 12:00:17;;;;;;;33.28;20.67;;;20.40;35.90;;;;;;5049228;28;20447;-74
2021/09/04 12:02:52;;;;;;;35.90;20.98;;;20.40;35.90;;;;;;5048729;28;20393;-75
2021/09/04 12:05:20;;;;;;;31.90;19.98;;;20.60;35.50;;;;;;5044939;28;20443;-73
2021/09/04 12:07:46;;;;;;;31.25;18.90;;;20.70;35.00;;;;;;5052298;28;20403;-72
2021/09/04 12:10:15;;;;;;;32.47;20.60;;;20.80;34.50;;;;;;5048191;28;20389;-73
2021/09/04 12:12:42;;;;;;;34.97;20.50;;;20.90;34.40;;;;;;5049740;28;20808;-77
2021/09/04 12:15:13;;;;;;;30.20;19.90;;;21.10;34.30;;;;;;5048783;28;20401;-77
2021/09/04 12:17:59;;;;;;;33.75;19.90;;;21.30;34.30;;;;;;5047114;28;20427;-77
2021/09/04 12:20:37;;;;;;;39.15;20.70;;;21.40;33.30;;;;;;5041098;28;20480;-75
2021/09/04 12:23:19;;;;;;;39.90;23.67;;;21.00;34.10;;;;;;5049813;28;20724;-76
2021/09/04 12:25:47;;;;;;;39.20;22.98;;;20.80;35.10;;;;;;5036584;28;20477;-72
2021/09/04 12:28:21;;;;;;;40.10;24.05;;;20.80;36.20;;;;;;5036725;28;20406;-74